createdAt,value
2023-05-21T00:00:30.423Z,17.60
2023-05-21T00:02:04.013Z,16.10
2023-05-21T00:03:36.816Z,17.20
2023-05-21T00:05:14.325Z,16.73
2023-05-21T00:06:47.478Z,17.23
2023-05-21T00:08:20.226Z,16.33
2023-05-21T00:09:52.977Z,18.07
2023-05-21T00:11:25.932Z,17.97
2023-05-21T00:12:58.719Z,17.63
2023-05-21T00:14:32.789Z,16.87
2023-05-21T00:16:06.090Z,17.97
2023-05-21T00:17:39.851Z,17.33
2023-05-21T00:19:12.693Z,17.70
2023-05-21T00:20:45.674Z,16.43
2023-05-21T00:22:18.488Z,17.43
2023-05-21T00:23:51.232Z,16.97
2023-05-21T00:25:23.984Z,17.53
2023-05-21T00:26:56.045Z,16.77
2023-05-21T00:28:28.948Z,17.67
2023-05-21T00:30:03.297Z,16.70
2023-05-21T00:31:35.210Z,16.33
2023-05-21T00:33:10.311Z,16.90
2023-05-21T00:34:43.163Z,16.57
2023-05-21T00:36:15.931Z,17.17
2023-05-21T00:37:48.671Z,16.53
2023-05-21T00:39:21.401Z,16.47
2023-05-21T00:40:54.186Z,17.60
2023-05-21T00:42:27.327Z,16.30
2023-05-21T00:44:00.317Z,17.87
2023-05-21T00:45:37.203Z,17.20
2023-05-21T00:47:10.303Z,16.90
2023-05-21T00:48:43.549Z,17.10
2023-05-21T00:50:17.453Z,17.80
2023-05-21T00:51:49.615Z,18.43
2023-05-21T00:53:22.437Z,18.37
2023-05-21T00:54:55.910Z,17.83
2023-05-21T00:56:28.712Z,18.40
2023-05-21T00:58:01.462Z,19.37
2023-05-21T00:59:34.555Z,17.50
2023-05-21T01:01:13.959Z,17.90
2023-05-21T01:02:47.706Z,17.73
2023-05-21T01:04:21.332Z,17.83
2023-05-21T01:05:53.240Z,17.20
2023-05-21T01:07:26.181Z,17.33
2023-05-21T01:08:59.728Z,17.70
2023-05-21T01:10:32.484Z,18.30
2023-05-21T01:12:06.459Z,17.60
2023-05-21T01:13:40.946Z,17.57
2023-05-21T01:15:14.059Z,18.23
2023-05-21T01:16:50.207Z,18.23
2023-05-21T01:18:23.490Z,17.33
2023-05-21T01:19:57.411Z,18.10
2023-05-21T01:21:31.259Z,18.13
2023-05-21T01:23:06.250Z,18.57
2023-05-21T01:24:38.218Z,17.20
2023-05-21T01:26:12.904Z,17.20
2023-05-21T01:27:45.853Z,18.23
2023-05-21T01:29:19.278Z,17.77
2023-05-21T01:30:52.246Z,17.90
2023-05-21T01:32:29.759Z,18.20
2023-05-21T01:34:05.884Z,17.20
2023-05-21T01:35:43.979Z,17.67
2023-05-21T01:37:21.737Z,16.97
2023-05-21T01:39:02.041Z,16.43
2023-05-21T01:40:40.295Z,17.10
2023-05-21T01:42:15.552Z,16.30
2023-05-21T01:43:49.069Z,16.77
2023-05-21T01:45:24.831Z,16.83
2023-05-21T01:46:58.258Z,17.80
2023-05-21T01:48:31.504Z,16.63
2023-05-21T01:50:04.767Z,17.13
2023-05-21T01:51:37.826Z,16.53
2023-05-21T01:53:10.654Z,17.53
2023-05-21T01:54:44.737Z,16.83
2023-05-21T01:56:17.529Z,17.03
2023-05-21T01:57:51.078Z,17.60
2023-05-21T01:59:23.985Z,16.73
2023-05-21T02:00:56.971Z,17.23
2023-05-21T02:02:29.926Z,17.80
2023-05-21T02:04:02.902Z,18.07
2023-05-21T02:05:35.972Z,16.57
2023-05-21T02:07:08.055Z,17.87
2023-05-21T02:08:40.795Z,16.90
2023-05-21T02:10:15.757Z,16.83
2023-05-21T02:11:48.488Z,17.70
2023-05-21T02:13:24.965Z,16.93
2023-05-21T02:14:59.766Z,16.83
2023-05-21T02:16:32.651Z,16.57
2023-05-21T02:18:05.521Z,17.90
2023-05-21T02:19:38.353Z,17.90
2023-05-21T02:21:12.004Z,17.17
2023-05-21T02:22:45.574Z,16.97
2023-05-21T02:24:18.308Z,18.27
2023-05-21T02:25:52.647Z,16.70
2023-05-21T02:27:24.433Z,17.07
2023-05-21T02:28:57.155Z,17.33
2023-05-21T02:30:30.116Z,17.27
2023-05-21T02:32:03.030Z,17.63
2023-05-21T02:33:34.923Z,17.17
2023-05-21T02:35:08.212Z,17.20
2023-05-21T02:36:41.624Z,17.13
2023-05-21T02:38:13.687Z,17.33
2023-05-21T02:39:46.773Z,17.40
2023-05-21T02:41:21.103Z,16.37
2023-05-21T02:42:53.955Z,17.20
2023-05-21T02:44:26.680Z,17.23
2023-05-21T02:45:59.428Z,16.00
2023-05-21T02:47:31.257Z,16.63
2023-05-21T02:49:04.113Z,17.43
2023-05-21T02:50:36.830Z,17.00
2023-05-21T02:52:08.649Z,16.93
2023-05-21T02:53:41.376Z,17.00
2023-05-21T02:55:13.185Z,16.30
2023-05-21T02:56:47.282Z,17.43
2023-05-21T02:58:19.475Z,16.47
2023-05-21T02:59:52.248Z,17.03
2023-05-21T03:01:25.012Z,17.20
2023-05-21T03:02:56.905Z,16.03
2023-05-21T03:04:29.730Z,16.63
2023-05-21T03:06:01.554Z,16.37
2023-05-21T03:07:34.260Z,17.93
2023-05-21T03:09:07.082Z,16.67
2023-05-21T03:10:39.860Z,16.20
2023-05-21T03:12:14.000Z,16.57
2023-05-21T03:13:47.003Z,16.30
2023-05-21T03:15:23.811Z,15.80
2023-05-21T03:16:56.639Z,16.27
2023-05-21T03:18:29.432Z,15.70
2023-05-21T03:20:02.175Z,15.37
2023-05-21T03:21:34.073Z,15.07
2023-05-21T03:23:06.801Z,15.53
2023-05-21T03:24:38.681Z,15.77
2023-05-21T03:26:11.482Z,16.03
2023-05-21T03:27:45.605Z,15.83
2023-05-21T03:29:18.355Z,15.87
2023-05-21T03:30:51.992Z,16.40
2023-05-21T03:32:24.884Z,16.20
2023-05-21T03:33:57.710Z,15.07
2023-05-21T03:35:30.464Z,16.97
2023-05-21T03:37:03.223Z,16.70
2023-05-21T03:38:37.169Z,17.17
2023-05-21T03:40:10.783Z,16.03
2023-05-21T03:41:42.968Z,16.20
2023-05-21T03:43:17.044Z,15.70
2023-05-21T03:44:48.836Z,17.33
2023-05-21T03:46:21.628Z,15.57
2023-05-21T03:47:54.480Z,16.50
2023-05-21T03:49:27.355Z,14.97
2023-05-21T03:51:00.362Z,15.60
2023-05-21T03:52:32.190Z,15.80
2023-05-21T03:54:05.116Z,15.77
2023-05-21T03:55:38.034Z,16.23
2023-05-21T03:57:10.909Z,14.70
2023-05-21T03:58:44.985Z,15.67
2023-05-21T04:00:17.046Z,15.23
2023-05-21T04:01:49.786Z,16.00
2023-05-21T04:03:21.735Z,14.80
2023-05-21T04:04:55.740Z,14.27
2023-05-21T04:06:30.092Z,14.13
2023-05-21T04:08:02.853Z,14.60
2023-05-21T04:09:36.681Z,14.83
2023-05-21T04:11:09.626Z,15.27
2023-05-21T04:12:41.454Z,14.87
2023-05-21T04:14:15.930Z,14.87
2023-05-21T04:15:48.950Z,14.47
2023-05-21T04:17:21.924Z,13.77
2023-05-21T04:18:56.104Z,15.03
2023-05-21T04:20:28.925Z,15.53
2023-05-21T04:22:00.991Z,14.53
2023-05-21T04:23:36.578Z,15.13
2023-05-21T04:25:10.004Z,15.17
2023-05-21T04:26:43.247Z,14.43
2023-05-21T04:28:20.223Z,15.47
2023-05-21T04:29:54.950Z,14.53
2023-05-21T04:31:27.724Z,14.70
2023-05-21T04:33:00.723Z,14.30
2023-05-21T04:34:33.878Z,14.80
2023-05-21T04:36:09.757Z,15.10
2023-05-21T04:37:45.803Z,14.60
2023-05-21T04:39:18.545Z,14.30
2023-05-21T04:40:51.896Z,15.00
2023-05-21T04:42:24.876Z,13.73
2023-05-21T04:43:58.653Z,14.63
2023-05-21T04:45:32.776Z,15.00
2023-05-21T04:47:04.841Z,14.87
2023-05-21T04:48:37.660Z,15.17
2023-05-21T04:50:11.887Z,14.30
2023-05-21T04:51:44.631Z,15.13
2023-05-21T04:53:16.477Z,14.37
2023-05-21T04:54:49.850Z,14.27
2023-05-21T04:56:22.801Z,14.37
2023-05-21T04:57:55.666Z,14.53
2023-05-21T04:59:28.417Z,14.70
2023-05-21T05:01:03.277Z,14.33
2023-05-21T05:02:36.230Z,14.37
2023-05-21T05:04:09.496Z,14.40
2023-05-21T05:05:42.332Z,14.20
2023-05-21T05:07:15.499Z,14.63
2023-05-21T05:08:48.266Z,14.27
2023-05-21T05:10:20.982Z,14.43
2023-05-21T05:11:52.792Z,13.97
2023-05-21T05:13:26.099Z,14.20
2023-05-21T05:14:58.825Z,14.23
2023-05-21T05:16:35.491Z,13.90
2023-05-21T05:18:09.285Z,14.17
2023-05-21T05:19:42.075Z,14.40
2023-05-21T05:21:13.859Z,13.43
2023-05-21T05:22:46.595Z,14.57
2023-05-21T05:24:19.374Z,14.00
2023-05-21T05:25:52.501Z,13.87
2023-05-21T05:27:25.612Z,14.20
2023-05-21T05:28:58.368Z,13.87
2023-05-21T05:30:31.266Z,13.80
2023-05-21T05:32:05.985Z,14.00
2023-05-21T05:33:38.753Z,13.37
2023-05-21T05:35:11.555Z,14.30
2023-05-21T05:36:44.279Z,14.33
2023-05-21T05:38:17.421Z,13.27
2023-05-21T05:39:49.246Z,14.23
2023-05-21T05:41:22.584Z,13.70
2023-05-21T05:42:55.388Z,13.70
2023-05-21T05:44:28.242Z,13.30
2023-05-21T05:46:01.191Z,14.07
2023-05-21T05:47:35.613Z,14.10
2023-05-21T05:49:08.333Z,13.93
2023-05-21T05:50:41.131Z,14.10
2023-05-21T05:52:14.194Z,13.90
2023-05-21T05:53:46.907Z,14.20
2023-05-21T05:55:19.667Z,13.93
2023-05-21T05:56:52.411Z,14.03
2023-05-21T05:58:25.160Z,14.47
2023-05-21T05:59:57.905Z,13.77
2023-05-21T06:01:31.951Z,13.97
2023-05-21T06:03:06.382Z,13.90
2023-05-21T06:04:39.145Z,14.30
2023-05-21T06:06:11.577Z,14.03
2023-05-21T06:07:44.388Z,14.43
2023-05-21T06:09:17.143Z,13.97
2023-05-21T06:10:49.869Z,14.67
2023-05-21T06:12:22.599Z,14.17
2023-05-21T06:13:55.471Z,13.97
2023-05-21T06:15:28.200Z,13.83
2023-05-21T06:17:01.026Z,14.10
2023-05-21T06:18:35.076Z,13.97
2023-05-21T06:20:10.346Z,13.33
2023-05-21T06:21:43.098Z,14.03
2023-05-21T06:23:15.979Z,13.33
2023-05-21T06:24:48.772Z,13.67
2023-05-21T06:26:21.897Z,13.93
2023-05-21T06:27:54.681Z,13.37
2023-05-21T06:29:27.449Z,13.23
2023-05-21T06:31:00.191Z,13.97
2023-05-21T06:32:33.015Z,13.83
2023-05-21T06:34:06.328Z,13.70
2023-05-21T06:35:40.128Z,13.57
2023-05-21T06:37:12.865Z,13.27
2023-05-21T06:38:45.604Z,13.07
2023-05-21T06:40:17.502Z,12.80
2023-05-21T06:41:50.263Z,13.50
2023-05-21T06:43:22.221Z,12.27
2023-05-21T06:44:54.963Z,12.83
2023-05-21T06:46:27.783Z,13.63
2023-05-21T06:48:00.697Z,12.93
2023-05-21T06:49:35.259Z,13.07
2023-05-21T06:51:08.072Z,12.70
2023-05-21T06:52:40.855Z,12.90
2023-05-21T06:54:14.197Z,13.83
2023-05-21T06:55:47.073Z,13.03
2023-05-21T06:57:19.944Z,13.23
2023-05-21T06:58:53.165Z,11.97
2023-05-21T07:00:26.245Z,12.27
2023-05-21T07:01:59.020Z,11.73
2023-05-21T07:03:31.838Z,12.30
2023-05-21T07:05:06.570Z,12.20
2023-05-21T07:06:40.236Z,12.37
2023-05-21T07:08:12.991Z,12.60
2023-05-21T07:09:45.742Z,12.87
2023-05-21T07:11:18.487Z,12.33
2023-05-21T07:12:51.208Z,11.93
2023-05-21T07:14:25.736Z,12.10
2023-05-21T07:16:00.324Z,11.37
2023-05-21T07:17:33.103Z,11.63
2023-05-21T07:19:06.151Z,12.07
2023-05-21T07:20:40.266Z,12.37
2023-05-21T07:22:13.633Z,11.97
2023-05-21T07:23:46.383Z,11.27
2023-05-21T07:25:18.197Z,11.90
2023-05-21T07:26:50.986Z,11.43
2023-05-21T07:28:23.794Z,11.90
2023-05-21T07:29:56.551Z,11.27
2023-05-21T07:31:29.388Z,11.60
2023-05-21T07:33:02.298Z,11.73
2023-05-21T07:34:35.042Z,11.30
2023-05-21T07:36:09.298Z,11.47
2023-05-21T07:37:41.647Z,11.30
2023-05-21T07:39:14.480Z,12.10
2023-05-21T07:40:47.276Z,11.77
2023-05-21T07:42:19.995Z,11.47
2023-05-21T07:43:52.725Z,11.67
2023-05-21T07:45:25.642Z,11.33
2023-05-21T07:46:58.576Z,11.40
2023-05-21T07:48:33.541Z,11.40
2023-05-21T07:50:08.166Z,11.13
2023-05-21T07:51:42.564Z,11.57
2023-05-21T07:53:14.419Z,12.03
2023-05-21T07:54:47.208Z,11.43
2023-05-21T07:56:19.939Z,11.53
2023-05-21T07:57:53.190Z,11.87
2023-05-21T07:59:26.298Z,11.70
2023-05-21T08:00:59.045Z,11.47
2023-05-21T08:02:31.860Z,11.40
2023-05-21T08:04:06.685Z,11.20
2023-05-21T08:05:39.648Z,11.27
2023-05-21T08:07:15.125Z,11.40
2023-05-21T08:08:47.880Z,12.07
2023-05-21T08:10:20.606Z,11.77
2023-05-21T08:11:53.400Z,11.57
2023-05-21T08:13:26.233Z,11.63
2023-05-21T08:14:59.187Z,11.30
2023-05-21T08:16:32.379Z,11.03
2023-05-21T08:18:05.777Z,11.93
2023-05-21T08:19:38.617Z,11.10
2023-05-21T08:21:11.760Z,11.47
2023-05-21T08:22:46.009Z,11.50
2023-05-21T08:24:18.773Z,11.90
2023-05-21T08:25:53.204Z,11.63
2023-05-21T08:27:25.975Z,11.60
2023-05-21T08:28:59.147Z,11.63
2023-05-21T08:30:31.863Z,11.33
2023-05-21T08:32:04.972Z,12.33
2023-05-21T08:33:38.206Z,12.20
2023-05-21T08:35:11.100Z,12.20
2023-05-21T08:36:46.010Z,11.30
2023-05-21T08:38:20.174Z,12.23
2023-05-21T08:39:52.967Z,11.47
2023-05-21T08:41:26.877Z,11.77
2023-05-21T08:42:58.705Z,10.97
2023-05-21T08:44:35.589Z,11.90
2023-05-21T08:46:10.816Z,11.60
2023-05-21T08:47:44.533Z,12.50
2023-05-21T08:49:19.587Z,12.00
2023-05-21T08:50:53.423Z,12.00
2023-05-21T08:52:27.120Z,12.17
2023-05-21T08:54:03.507Z,11.80
2023-05-21T08:55:38.837Z,12.10
2023-05-21T08:57:10.991Z,11.63
2023-05-21T08:58:45.975Z,11.77
2023-05-21T09:00:20.670Z,11.33
2023-05-21T09:01:54.087Z,11.47
2023-05-21T09:03:27.535Z,11.40
2023-05-21T09:05:03.142Z,11.37
2023-05-21T09:06:36.144Z,11.67
2023-05-21T09:08:15.932Z,12.00
2023-05-21T09:09:55.815Z,11.67
2023-05-21T09:11:28.662Z,11.53
2023-05-21T09:13:01.576Z,12.07
2023-05-21T09:14:34.951Z,11.87
2023-05-21T09:16:08.990Z,11.90
2023-05-21T09:17:41.778Z,10.93
2023-05-21T09:19:14.648Z,12.00
2023-05-21T09:20:47.410Z,11.80
2023-05-21T09:22:24.598Z,11.60
2023-05-21T09:23:58.632Z,11.80
2023-05-21T09:25:33.341Z,11.90
2023-05-21T09:27:08.003Z,11.70
2023-05-21T09:28:40.819Z,12.00
2023-05-21T09:30:15.173Z,11.90
2023-05-21T09:31:48.164Z,12.30
2023-05-21T09:33:29.217Z,11.47
2023-05-21T09:35:09.394Z,11.33
2023-05-21T09:36:43.702Z,11.23
2023-05-21T09:38:16.564Z,11.27
2023-05-21T09:39:49.470Z,11.13
2023-05-21T09:41:32.474Z,11.73
2023-05-21T09:43:06.310Z,11.77
2023-05-21T09:44:38.148Z,10.83
2023-05-21T09:46:11.012Z,11.00
2023-05-21T09:47:44.665Z,11.07
2023-05-21T09:49:26.149Z,11.90
2023-05-21T09:51:11.892Z,10.77
2023-05-21T09:52:44.639Z,10.53
2023-05-21T09:54:17.422Z,11.47
2023-05-21T09:55:58.308Z,11.00
2023-05-21T09:57:32.459Z,11.07
2023-05-21T09:59:05.414Z,10.93
2023-05-21T10:00:38.324Z,11.17
2023-05-21T10:02:20.547Z,10.33
2023-05-21T10:03:57.253Z,11.10
2023-05-21T10:05:31.228Z,10.77
2023-05-21T10:07:04.124Z,10.83
2023-05-21T10:08:37.381Z,11.00
2023-05-21T10:10:14.553Z,11.10
2023-05-21T10:11:49.993Z,11.13
2023-05-21T10:13:25.147Z,10.23
2023-05-21T10:15:05.369Z,10.27
2023-05-21T10:16:38.447Z,11.03
2023-05-21T10:18:12.288Z,11.13
2023-05-21T10:19:47.176Z,11.30
2023-05-21T10:21:20.262Z,11.13
2023-05-21T10:22:53.909Z,10.73
2023-05-21T10:24:27.418Z,10.70
2023-05-21T10:26:00.996Z,11.30
2023-05-21T10:27:35.766Z,10.63
2023-05-21T10:29:09.931Z,10.33
2023-05-21T10:30:43.368Z,11.27
2023-05-21T10:32:17.339Z,10.80
2023-05-21T10:33:50.283Z,10.43
2023-05-21T10:35:23.981Z,10.90
2023-05-21T10:36:58.846Z,11.33
2023-05-21T10:38:34.431Z,10.57
2023-05-21T10:40:08.593Z,10.60
2023-05-21T10:41:52.369Z,11.30
2023-05-21T10:43:39.818Z,10.90
2023-05-21T10:45:22.630Z,11.30
2023-05-21T10:47:34.196Z,11.17
2023-05-21T10:49:22.567Z,10.97
2023-05-21T10:51:17.413Z,10.83
2023-05-21T10:53:09.949Z,11.53
2023-05-21T10:54:59.014Z,11.47
2023-05-21T10:56:39.766Z,11.23
2023-05-21T10:58:31.076Z,12.10
2023-05-21T11:00:05.016Z,11.57
2023-05-21T11:01:40.454Z,11.37
2023-05-21T11:03:14.827Z,11.70
2023-05-21T11:04:58.712Z,11.60
2023-05-21T11:06:31.036Z,11.27
2023-05-21T11:08:04.262Z,10.90
2023-05-21T11:09:37.055Z,12.10
2023-05-21T11:11:09.306Z,12.73
2023-05-21T11:13:06.260Z,11.70
2023-05-21T11:14:40.395Z,11.20
2023-05-21T11:16:16.795Z,11.60
2023-05-21T11:17:51.249Z,11.37
2023-05-21T11:19:35.374Z,11.97
2023-05-21T11:21:10.002Z,12.17
2023-05-21T11:22:42.857Z,11.93
2023-05-21T11:24:20.901Z,12.50
2023-05-21T11:26:01.232Z,11.40
2023-05-21T11:27:35.622Z,12.43
2023-05-21T11:29:08.525Z,11.50
2023-05-21T11:30:41.398Z,11.80
2023-05-21T11:32:17.360Z,10.90
2023-05-21T11:34:09.767Z,11.87
2023-05-21T11:35:59.227Z,12.03
2023-05-21T11:37:34.522Z,11.73
2023-05-21T11:39:11.698Z,12.40
2023-05-21T11:40:54.588Z,11.83
2023-05-21T11:42:31.668Z,11.87
2023-05-21T11:44:09.657Z,12.00
2023-05-21T11:45:46.779Z,12.00
2023-05-21T11:47:19.875Z,12.30
2023-05-21T11:48:54.945Z,11.83
2023-05-21T11:50:30.582Z,11.83
2023-05-21T11:52:03.740Z,11.73
2023-05-21T11:53:38.727Z,11.67
2023-05-21T11:55:12.192Z,11.50
2023-05-21T11:56:45.165Z,11.27
2023-05-21T11:58:20.063Z,11.20
2023-05-21T11:59:52.166Z,11.17
2023-05-21T12:01:26.413Z,11.53
2023-05-21T12:02:59.328Z,11.37
2023-05-21T12:04:33.001Z,11.87
2023-05-21T12:06:06.497Z,11.60
2023-05-21T12:07:39.515Z,12.63
2023-05-21T12:09:13.772Z,12.50
2023-05-21T12:10:46.621Z,11.97
2023-05-21T12:12:21.315Z,10.77
2023-05-21T12:13:54.111Z,10.37
2023-05-21T12:15:28.101Z,10.60
2023-05-21T12:17:00.180Z,10.27
2023-05-21T12:18:33.001Z,10.37
2023-05-21T12:20:10.604Z,10.30
2023-05-21T12:21:43.486Z,9.77
2023-05-21T12:23:21.015Z,10.33
2023-05-21T12:24:54.572Z,9.97
2023-05-21T12:26:28.132Z,10.67
2023-05-21T12:28:03.391Z,10.53
2023-05-21T12:29:36.641Z,9.97
2023-05-21T12:31:15.946Z,9.63
2023-05-21T12:32:50.205Z,9.63
2023-05-21T12:34:39.243Z,9.87
2023-05-21T12:36:22.943Z,9.83
2023-05-21T12:37:55.774Z,10.77
2023-05-21T12:39:27.622Z,10.03
2023-05-21T12:41:04.881Z,10.30
2023-05-21T12:42:40.071Z,10.50
2023-05-21T12:44:11.964Z,10.97
2023-05-21T12:45:45.041Z,11.00
2023-05-21T12:47:18.330Z,10.60
2023-05-21T12:48:51.444Z,9.97
2023-05-21T12:50:24.485Z,9.63
2023-05-21T12:51:59.138Z,10.07
2023-05-21T12:53:38.163Z,9.07
2023-05-21T12:55:14.009Z,9.60
2023-05-21T12:56:47.248Z,9.03
2023-05-21T12:58:23.066Z,9.33
2023-05-21T12:59:57.302Z,9.50
2023-05-21T13:01:30.117Z,9.20
2023-05-21T13:03:04.652Z,9.70
2023-05-21T13:04:37.694Z,9.83
2023-05-21T13:06:10.480Z,9.03
2023-05-21T13:07:46.696Z,9.00
2023-05-21T13:09:20.371Z,9.30
2023-05-21T13:10:53.154Z,9.30
2023-05-21T13:12:27.131Z,9.23
2023-05-21T13:13:59.878Z,9.50
2023-05-21T13:15:32.919Z,9.00
2023-05-21T13:17:05.824Z,9.20
2023-05-21T13:18:38.576Z,9.37
2023-05-21T13:20:13.437Z,8.90
2023-05-21T13:21:46.176Z,9.37
2023-05-21T13:23:20.458Z,9.97
2023-05-21T13:24:52.298Z,9.37
2023-05-21T13:26:25.047Z,9.20
2023-05-21T13:27:58.797Z,10.00
2023-05-21T13:29:31.543Z,9.27
2023-05-21T13:31:04.405Z,9.40
2023-05-21T13:32:37.532Z,9.17
2023-05-21T13:34:11.109Z,9.50
2023-05-21T13:35:45.619Z,9.50
2023-05-21T13:37:20.087Z,9.27
2023-05-21T13:38:56.312Z,9.40
2023-05-21T13:40:29.158Z,9.43
2023-05-21T13:42:01.937Z,9.67
2023-05-21T13:43:34.725Z,9.47
2023-05-21T13:45:09.238Z,9.63
2023-05-21T13:46:42.027Z,9.33
2023-05-21T13:48:14.835Z,9.17
2023-05-21T13:49:47.707Z,9.50
2023-05-21T13:51:37.471Z,9.07
2023-05-21T13:53:11.605Z,8.97
2023-05-21T13:54:45.746Z,9.30
2023-05-21T13:56:18.507Z,9.50
2023-05-21T13:57:51.258Z,9.10
2023-05-21T13:59:24.067Z,8.73
2023-05-21T14:00:56.910Z,9.50
2023-05-21T14:02:29.946Z,9.07
2023-05-21T14:04:05.401Z,9.17
2023-05-21T14:05:38.429Z,8.83
2023-05-21T14:07:12.203Z,8.93
2023-05-21T14:08:44.987Z,8.57
2023-05-21T14:10:20.297Z,8.70
2023-05-21T14:11:53.022Z,8.53
2023-05-21T14:13:25.950Z,9.10
2023-05-21T14:14:58.699Z,8.23
2023-05-21T14:16:31.766Z,9.00
2023-05-21T14:18:07.826Z,8.83
2023-05-21T14:19:41.135Z,8.80
2023-05-21T14:21:13.858Z,8.90
2023-05-21T14:22:46.633Z,9.17
2023-05-21T14:24:19.410Z,8.63
2023-05-21T14:25:53.624Z,8.73
2023-05-21T14:27:26.354Z,9.43
2023-05-21T14:28:59.138Z,8.90
2023-05-21T14:30:31.871Z,9.00
2023-05-21T14:32:04.727Z,8.57
2023-05-21T14:33:38.318Z,9.00
2023-05-21T14:35:11.057Z,9.27
2023-05-21T14:36:43.806Z,8.67
2023-05-21T14:38:16.615Z,8.80
2023-05-21T14:39:49.422Z,8.67
2023-05-21T14:41:27.418Z,8.43
2023-05-21T14:43:00.605Z,8.40
2023-05-21T14:44:33.388Z,8.50
2023-05-21T14:46:06.277Z,8.30
2023-05-21T14:47:39.119Z,8.60
2023-05-21T14:49:12.205Z,8.47
2023-05-21T14:50:45.288Z,8.67
2023-05-21T14:52:18.029Z,8.60
2023-05-21T14:53:51.089Z,9.03
2023-05-21T14:55:24.017Z,8.60
2023-05-21T14:56:58.084Z,8.40
2023-05-21T14:58:30.797Z,8.37
2023-05-21T15:00:03.944Z,8.57
2023-05-21T15:01:36.754Z,8.20
2023-05-21T15:03:09.648Z,8.33
2023-05-21T15:04:42.461Z,8.60
2023-05-21T15:06:15.304Z,8.03
2023-05-21T15:07:48.146Z,8.80
2023-05-21T15:09:20.891Z,8.33
2023-05-21T15:10:53.677Z,8.37
2023-05-21T15:12:27.765Z,8.70
2023-05-21T15:14:00.550Z,9.10
2023-05-21T15:15:33.325Z,8.73
2023-05-21T15:17:06.129Z,8.40
2023-05-21T15:18:38.912Z,8.53
2023-05-21T15:20:12.182Z,9.00
2023-05-21T15:21:44.939Z,8.93
2023-05-21T15:23:18.153Z,8.93
2023-05-21T15:24:50.941Z,9.60
2023-05-21T15:26:25.251Z,9.23
2023-05-21T15:27:59.425Z,8.77
2023-05-21T15:29:32.388Z,8.80
2023-05-21T15:31:05.201Z,9.47
2023-05-21T15:32:38.029Z,8.83
2023-05-21T15:34:10.845Z,8.17
2023-05-21T15:35:44.153Z,8.83
2023-05-21T15:37:17.321Z,8.80
2023-05-21T15:38:50.062Z,8.57
2023-05-21T15:40:25.476Z,8.87
2023-05-21T15:41:59.611Z,9.53
2023-05-21T15:43:33.779Z,8.97
2023-05-21T15:45:07.540Z,8.47
2023-05-21T15:46:40.525Z,8.53
2023-05-21T15:48:13.697Z,8.77
2023-05-21T15:49:46.584Z,8.60
2023-05-21T15:51:19.578Z,8.70
2023-05-21T15:52:53.545Z,9.03
2023-05-21T15:54:26.497Z,9.10
2023-05-21T15:55:59.231Z,8.40
2023-05-21T15:57:32.075Z,8.60
2023-05-21T15:59:06.170Z,8.73
2023-05-21T16:00:39.008Z,8.23
2023-05-21T16:02:11.850Z,8.70
2023-05-21T16:03:44.700Z,8.80
2023-05-21T16:05:17.534Z,8.73
2023-05-21T16:06:50.283Z,8.30
2023-05-21T16:08:23.024Z,8.73
2023-05-21T16:09:55.797Z,8.63
2023-05-21T16:11:29.228Z,10.40
2023-05-21T16:13:02.044Z,9.67
2023-05-21T16:14:36.156Z,9.40
2023-05-21T16:16:09.444Z,9.80
2023-05-21T16:17:42.232Z,9.43
2023-05-21T16:19:15.043Z,8.90
2023-05-21T16:20:48.230Z,9.10
2023-05-21T16:22:21.192Z,9.20
2023-05-21T16:23:54.017Z,9.03
2023-05-21T16:25:26.758Z,8.87
2023-05-21T16:26:59.508Z,9.13
2023-05-21T16:28:32.253Z,9.33
2023-05-21T16:30:07.677Z,9.00
2023-05-21T16:31:40.473Z,8.93
2023-05-21T16:33:12.454Z,9.60
2023-05-21T16:34:45.273Z,9.37
2023-05-21T16:36:18.094Z,10.03
2023-05-21T16:37:50.878Z,8.93
2023-05-21T16:39:23.609Z,9.27
2023-05-21T16:40:56.566Z,8.53
2023-05-21T16:42:29.305Z,8.63
2023-05-21T16:44:02.105Z,9.87
2023-05-21T16:45:41.321Z,8.87
2023-05-21T16:47:14.217Z,9.00
2023-05-21T16:48:46.949Z,8.40
2023-05-21T16:50:19.028Z,8.90
2023-05-21T16:51:51.961Z,8.93
2023-05-21T16:53:24.712Z,8.30
2023-05-21T16:54:57.459Z,8.43
2023-05-21T16:56:30.258Z,8.47
2023-05-21T16:58:04.238Z,8.47
2023-05-21T16:59:36.978Z,8.50
2023-05-21T17:01:11.192Z,8.63
2023-05-21T17:02:44.050Z,7.87
2023-05-21T17:04:16.945Z,8.73
2023-05-21T17:05:49.767Z,8.73
2023-05-21T17:07:22.548Z,8.83
2023-05-21T17:08:55.556Z,8.87
2023-05-21T17:10:28.479Z,9.37
2023-05-21T17:12:01.251Z,8.80
2023-05-21T17:13:34.021Z,9.37
2023-05-21T17:15:08.008Z,8.73
2023-05-21T17:16:42.751Z,8.67
2023-05-21T17:18:15.663Z,8.40
2023-05-21T17:19:48.433Z,8.57
2023-05-21T17:21:21.240Z,9.00
2023-05-21T17:22:54.016Z,8.70
2023-05-21T17:24:26.835Z,8.73
2023-05-21T17:25:59.570Z,8.50
2023-05-21T17:27:32.857Z,9.03
2023-05-21T17:29:05.712Z,10.83
2023-05-21T17:30:38.614Z,8.97
2023-05-21T17:32:12.973Z,9.10
2023-05-21T17:33:45.865Z,8.77
2023-05-21T17:35:18.641Z,8.87
2023-05-21T17:36:51.372Z,9.43
2023-05-21T17:38:24.147Z,9.20
2023-05-21T17:39:57.596Z,9.47
2023-05-21T17:41:31.143Z,9.10
2023-05-21T17:43:04.239Z,8.70
2023-05-21T17:44:37.072Z,9.00
2023-05-21T17:46:09.844Z,9.20
2023-05-21T17:47:44.016Z,9.40
2023-05-21T17:49:17.013Z,9.70
2023-05-21T17:50:49.889Z,10.90
2023-05-21T17:52:22.654Z,9.67
2023-05-21T17:53:55.400Z,9.43
2023-05-21T17:55:28.180Z,10.33
2023-05-21T17:57:00.919Z,9.70
2023-05-21T17:58:33.738Z,8.73
2023-05-21T18:00:08.471Z,9.30
2023-05-21T18:01:41.416Z,8.73
2023-05-21T18:03:15.556Z,9.20
2023-05-21T18:04:48.309Z,9.23
2023-05-21T18:06:21.105Z,12.00
2023-05-21T18:07:53.861Z,10.40
2023-05-21T18:09:26.623Z,10.63
2023-05-21T18:11:01.201Z,12.57
2023-05-21T18:12:34.408Z,9.53
2023-05-21T18:14:07.188Z,9.33
2023-05-21T18:15:39.909Z,10.03
2023-05-21T18:17:12.746Z,9.67
2023-05-21T18:18:46.874Z,9.97
2023-05-21T18:20:19.721Z,9.77
2023-05-21T18:21:52.472Z,9.77
2023-05-21T18:23:27.854Z,8.87
2023-05-21T18:25:01.449Z,9.10
2023-05-21T18:26:34.196Z,9.63
2023-05-21T18:28:07.143Z,9.40
2023-05-21T18:29:39.894Z,9.03
2023-05-21T18:31:12.846Z,8.87
2023-05-21T18:32:45.734Z,8.93
2023-05-21T18:34:19.887Z,8.60
2023-05-21T18:35:52.632Z,9.23
2023-05-21T18:37:25.636Z,9.37
2023-05-21T18:38:58.386Z,9.70
2023-05-21T18:40:33.112Z,9.57
2023-05-21T18:42:13.326Z,9.43
2023-05-21T18:43:47.053Z,9.00
2023-05-21T18:45:19.943Z,9.67
2023-05-21T18:46:54.376Z,9.53
2023-05-21T18:48:27.969Z,9.03
2023-05-21T18:50:02.029Z,8.80
2023-05-21T18:51:34.807Z,9.10
2023-05-21T18:53:07.613Z,9.53
2023-05-21T18:54:40.381Z,9.20
2023-05-21T18:56:13.113Z,8.80
2023-05-21T18:57:46.157Z,9.17
2023-05-21T18:59:18.911Z,9.00
2023-05-21T19:00:51.649Z,9.73
2023-05-21T19:02:25.361Z,9.23
2023-05-21T19:03:58.215Z,9.77
2023-05-21T19:05:32.839Z,9.50
2023-05-21T19:07:06.010Z,9.33
2023-05-21T19:08:38.989Z,9.30
2023-05-21T19:10:13.849Z,9.83
2023-05-21T19:11:46.699Z,8.97
2023-05-21T19:13:19.506Z,9.60
2023-05-21T19:14:52.249Z,9.27
2023-05-21T19:16:25.104Z,8.70
2023-05-21T19:17:58.001Z,8.67
2023-05-21T19:19:30.853Z,8.87
2023-05-21T19:21:05.176Z,8.83
2023-05-21T19:22:37.985Z,9.30
2023-05-21T19:24:10.799Z,8.80
2023-05-21T19:25:43.600Z,8.97
2023-05-21T19:27:16.405Z,8.50
2023-05-21T19:28:52.756Z,8.90
2023-05-21T19:30:25.533Z,9.33
2023-05-21T19:31:59.079Z,9.00
2023-05-21T19:33:31.966Z,8.97
2023-05-21T19:35:05.576Z,8.80
2023-05-21T19:36:52.093Z,8.67
2023-05-21T19:38:26.399Z,8.07
2023-05-21T19:39:59.191Z,8.83
2023-05-21T19:41:31.958Z,8.53
2023-05-21T19:43:04.788Z,8.67
2023-05-21T19:44:39.274Z,8.83
2023-05-21T19:46:12.091Z,8.70
2023-05-21T19:47:44.979Z,9.27
2023-05-21T19:49:19.755Z,8.80
2023-05-21T19:50:52.491Z,8.80
2023-05-21T19:52:26.572Z,9.07
2023-05-21T19:53:59.303Z,9.10
2023-05-21T19:55:35.218Z,8.63
2023-05-21T19:57:09.096Z,8.37
2023-05-21T19:58:46.933Z,8.43
2023-05-21T20:00:20.302Z,8.70
2023-05-21T20:01:53.054Z,8.93
2023-05-21T20:03:26.170Z,8.70
2023-05-21T20:04:59.767Z,9.30
2023-05-21T20:06:32.493Z,8.57
2023-05-21T20:08:06.693Z,8.77
2023-05-21T20:09:39.868Z,9.03
2023-05-21T20:11:12.867Z,8.77
2023-05-21T20:12:45.968Z,8.40
2023-05-21T20:14:18.801Z,8.63
2023-05-21T20:15:52.122Z,8.43
2023-05-21T20:17:25.381Z,8.43
2023-05-21T20:18:58.330Z,8.13
2023-05-21T20:20:34.590Z,8.60
2023-05-21T20:22:07.443Z,8.73
2023-05-21T20:23:41.658Z,9.33
2023-05-21T20:25:14.402Z,8.83